createdAt,value
2019-02-02T00:00:05.225Z,2.12
2019-02-02T00:01:05.675Z,2.19
2019-02-02T00:02:05.481Z,2.12
2019-02-02T00:03:05.373Z,2.12
2019-02-02T00:04:05.351Z,2.19
2019-02-02T00:05:05.612Z,2.19
2019-02-02T00:06:05.866Z,2.19
2019-02-02T00:07:05.360Z,2.19
2019-02-02T00:08:05.384Z,2.19
2019-02-02T00:09:05.063Z,2.19
2019-02-02T00:10:06.209Z,2.19
2019-02-02T00:11:05.772Z,2.19
2019-02-02T00:12:05.481Z,2.19
2019-02-02T00:13:05.559Z,2.19
2019-02-02T00:14:05.653Z,2.19
2019-02-02T00:15:05.632Z,2.19
2019-02-02T00:16:05.979Z,2.19
2019-02-02T00:17:05.949Z,2.19
2019-02-02T00:18:05.484Z,2.19
2019-02-02T00:19:05.523Z,2.19
2019-02-02T00:20:07.089Z,2.12
2019-02-02T00:21:05.528Z,2.12
2019-02-02T00:22:05.943Z,2.12
2019-02-02T00:23:05.608Z,2.12
2019-02-02T00:24:05.148Z,2.06
2019-02-02T00:25:05.690Z,2.12
2019-02-02T00:26:05.731Z,2.12
2019-02-02T00:27:05.769Z,2.12
2019-02-02T00:28:05.879Z,2.06
2019-02-02T00:29:06.004Z,2.12
2019-02-02T00:30:05.630Z,2.12
2019-02-02T00:31:05.618Z,2.12
2019-02-02T00:32:05.216Z,2.12
2019-02-02T00:33:05.402Z,2.12
2019-02-02T00:34:05.695Z,2.12
2019-02-02T00:35:06.029Z,2.12
2019-02-02T00:36:05.225Z,2.12
2019-02-02T00:37:05.374Z,2.12
2019-02-02T00:38:05.877Z,2.12
2019-02-02T00:39:05.951Z,2.12
2019-02-02T00:40:06.030Z,2.12
2019-02-02T00:41:05.209Z,2.12
2019-02-02T00:42:05.706Z,2.12
2019-02-02T00:43:05.292Z,2.12
2019-02-02T00:44:05.725Z,2.12
2019-02-02T00:45:05.115Z,2.12
2019-02-02T00:46:05.281Z,2.12
2019-02-02T00:47:05.599Z,2.06
2019-02-02T00:48:06.688Z,2.12
2019-02-02T00:49:06.025Z,2.12
2019-02-02T00:50:05.239Z,2.06
2019-02-02T00:51:05.856Z,2.06
2019-02-02T00:52:05.949Z,2.06
2019-02-02T00:53:05.034Z,2.06
2019-02-02T00:54:05.877Z,2.06
2019-02-02T00:55:05.224Z,2.06
2019-02-02T00:56:05.377Z,2.06
2019-02-02T00:57:05.852Z,2.06
2019-02-02T00:58:06.114Z,2.00
2019-02-02T00:59:06.001Z,2.06
2019-02-02T01:00:05.442Z,2.06
2019-02-02T01:01:05.682Z,2.06
2019-02-02T01:02:06.045Z,2.06
2019-02-02T01:03:05.920Z,2.06
2019-02-02T01:04:05.161Z,2.06
2019-02-02T01:05:05.116Z,2.06
2019-02-02T01:06:05.637Z,2.06
2019-02-02T01:07:06.033Z,2.00
2019-02-02T01:08:05.233Z,2.00
2019-02-02T01:09:05.637Z,2.00
2019-02-02T01:10:05.798Z,2.00
2019-02-02T01:11:05.868Z,2.00
2019-02-02T01:12:05.971Z,2.06
2019-02-02T01:13:06.736Z,2.06
2019-02-02T01:14:05.242Z,2.00
2019-02-02T01:15:05.318Z,2.00
2019-02-02T01:16:05.661Z,2.00
2019-02-02T01:17:05.612Z,2.00
2019-02-02T01:18:05.750Z,2.00
2019-02-02T01:19:05.757Z,2.00
2019-02-02T01:20:06.028Z,2.00
2019-02-02T01:21:05.694Z,2.00
2019-02-02T01:22:05.604Z,2.00
2019-02-02T01:23:05.949Z,2.00
2019-02-02T01:24:05.071Z,2.00
2019-02-02T01:25:05.095Z,2.00
2019-02-02T01:26:05.876Z,2.00
2019-02-02T01:27:06.030Z,2.00
2019-02-02T01:28:05.732Z,2.00
2019-02-02T01:29:05.292Z,2.00
2019-02-02T01:30:05.861Z,2.00
2019-02-02T01:31:06.005Z,2.00
2019-02-02T01:32:05.048Z,2.00
2019-02-02T01:33:05.370Z,2.00
2019-02-02T01:34:05.045Z,2.00
2019-02-02T01:35:05.378Z,2.00
2019-02-02T01:36:05.651Z,2.00
2019-02-02T01:37:05.921Z,2.00
2019-02-02T01:38:05.535Z,2.00
2019-02-02T01:39:05.790Z,2.00
2019-02-02T01:40:06.140Z,1.94
2019-02-02T01:41:05.246Z,1.94
2019-02-02T01:42:05.251Z,1.94
2019-02-02T01:43:05.323Z,1.94
2019-02-02T01:44:05.600Z,1.94
2019-02-02T01:45:05.776Z,1.94
2019-02-02T01:46:05.775Z,1.94
2019-02-02T01:47:05.146Z,1.94
2019-02-02T01:48:05.147Z,1.94
2019-02-02T01:49:05.761Z,1.94
2019-02-02T01:50:05.683Z,1.94
2019-02-02T01:51:05.949Z,1.94
2019-02-02T01:52:05.141Z,2.00
2019-02-02T01:53:05.625Z,1.94
2019-02-02T01:54:05.781Z,1.94
2019-02-02T01:55:05.223Z,1.94
2019-02-02T01:56:06.609Z,2.00
2019-02-02T01:57:06.027Z,1.94
2019-02-02T01:58:15.910Z,1.94
2019-02-02T01:59:05.363Z,1.94
2019-02-02T02:00:05.147Z,1.94
2019-02-02T02:01:05.689Z,1.94
2019-02-02T02:02:05.146Z,2.00
2019-02-02T02:03:05.144Z,2.00
2019-02-02T02:04:05.318Z,2.00
2019-02-02T02:05:05.916Z,2.00
2019-02-02T02:06:05.245Z,1.94
2019-02-02T02:07:05.201Z,1.94
2019-02-02T02:08:05.561Z,1.94
2019-02-02T02:09:05.466Z,1.94
2019-02-02T02:10:05.456Z,1.94
2019-02-02T02:11:05.881Z,1.94
2019-02-02T02:12:05.967Z,1.94
2019-02-02T02:13:05.930Z,1.94
2019-02-02T02:14:05.710Z,1.94
2019-02-02T02:15:05.859Z,2.00
2019-02-02T02:16:05.154Z,2.00
2019-02-02T02:17:05.517Z,2.00
2019-02-02T02:18:05.250Z,2.00
2019-02-02T02:19:05.296Z,1.94
2019-02-02T02:20:05.402Z,1.94
2019-02-02T02:21:05.936Z,1.94
2019-02-02T02:22:05.479Z,1.94
2019-02-02T02:23:05.220Z,1.94
2019-02-02T02:24:05.317Z,1.94
2019-02-02T02:25:05.280Z,1.94
2019-02-02T02:26:05.789Z,1.94
2019-02-02T02:27:06.032Z,1.88
2019-02-02T02:28:05.398Z,1.94
2019-02-02T02:29:05.522Z,1.94
2019-02-02T02:30:05.449Z,1.88
2019-02-02T02:31:05.760Z,1.88
2019-02-02T02:32:05.926Z,1.88
2019-02-02T02:33:05.204Z,1.88
2019-02-02T02:34:05.304Z,1.88
2019-02-02T02:35:05.522Z,1.88
2019-02-02T02:36:05.155Z,1.88
2019-02-02T02:37:05.385Z,1.88
2019-02-02T02:38:05.571Z,1.88
2019-02-02T02:39:05.572Z,1.88
2019-02-02T02:40:06.047Z,1.88
2019-02-02T02:41:05.524Z,1.88
2019-02-02T02:42:05.221Z,1.88
2019-02-02T02:43:05.517Z,1.88
2019-02-02T02:44:05.495Z,1.88
2019-02-02T02:45:05.307Z,1.88
2019-02-02T02:46:05.866Z,1.88
2019-02-02T02:47:05.920Z,1.94
2019-02-02T02:48:05.921Z,1.94
2019-02-02T02:49:05.192Z,1.94
2019-02-02T02:50:05.403Z,1.94
2019-02-02T02:51:05.947Z,1.88
2019-02-02T02:52:05.953Z,1.88
2019-02-02T02:53:06.028Z,1.88
2019-02-02T02:54:05.211Z,1.88
2019-02-02T02:55:05.526Z,1.88
2019-02-02T02:56:05.309Z,1.88
2019-02-02T02:57:05.677Z,1.88
2019-02-02T02:58:05.140Z,1.88
2019-02-02T02:59:05.922Z,1.94
2019-02-02T03:00:06.003Z,1.94
2019-02-02T03:01:05.353Z,1.88
2019-02-02T03:02:05.478Z,1.88
2019-02-02T03:03:05.755Z,1.88
2019-02-02T03:04:05.962Z,1.88
2019-02-02T03:05:06.096Z,1.88
2019-02-02T03:06:05.243Z,1.88
2019-02-02T03:07:05.291Z,1.94
2019-02-02T03:08:05.924Z,1.88
2019-02-02T03:09:05.218Z,1.88
2019-02-02T03:10:05.730Z,1.88
2019-02-02T03:11:05.761Z,1.88
2019-02-02T03:12:06.043Z,1.88
2019-02-02T03:13:05.439Z,1.88
2019-02-02T03:14:05.804Z,1.88
2019-02-02T03:15:05.763Z,1.88
2019-02-02T03:16:05.370Z,1.88
2019-02-02T03:17:05.766Z,1.88
2019-02-02T03:18:05.239Z,1.88
2019-02-02T03:19:05.218Z,1.88
2019-02-02T03:20:05.524Z,1.88
2019-02-02T03:21:05.870Z,1.88
2019-02-02T03:22:05.770Z,1.88
2019-02-02T03:23:05.853Z,1.88
2019-02-02T03:24:05.284Z,1.88
2019-02-02T03:25:05.599Z,1.88
2019-02-02T03:26:05.634Z,1.88
2019-02-02T03:27:05.371Z,1.88
2019-02-02T03:28:05.782Z,1.88
2019-02-02T03:29:05.325Z,1.88
2019-02-02T03:30:05.635Z,1.88
2019-02-02T03:31:06.151Z,1.88
2019-02-02T03:32:05.636Z,1.88
2019-02-02T03:33:05.713Z,1.88
2019-02-02T03:34:05.866Z,1.88
2019-02-02T03:35:05.967Z,1.88
2019-02-02T03:36:05.121Z,1.88
2019-02-02T03:37:05.301Z,1.88
2019-02-02T03:38:05.229Z,1.88
2019-02-02T03:39:05.844Z,1.88
2019-02-02T03:40:05.290Z,1.88
2019-02-02T03:41:05.532Z,1.88
2019-02-02T03:42:05.629Z,1.88
2019-02-02T03:43:06.009Z,1.81
2019-02-02T03:44:05.063Z,1.88
2019-02-02T03:45:05.226Z,1.81
2019-02-02T03:46:05.234Z,1.81
2019-02-02T03:47:05.392Z,1.81
2019-02-02T03:48:05.320Z,1.81
2019-02-02T03:49:05.311Z,1.81
2019-02-02T03:50:05.789Z,1.81
2019-02-02T03:51:05.245Z,1.81
2019-02-02T03:52:05.455Z,1.81
2019-02-02T03:53:05.693Z,1.81
2019-02-02T03:54:08.602Z,1.81
2019-02-02T03:55:05.711Z,1.81
2019-02-02T03:56:05.077Z,1.81
2019-02-02T03:57:05.368Z,1.81
2019-02-02T03:58:05.378Z,1.81
2019-02-02T03:59:06.945Z,1.81
2019-02-02T04:00:05.555Z,1.81
2019-02-02T04:01:05.520Z,1.81
2019-02-02T04:02:05.787Z,1.81
2019-02-02T04:03:05.794Z,1.81
2019-02-02T04:04:05.772Z,1.81
2019-02-02T04:05:06.024Z,1.88
2019-02-02T04:06:05.456Z,1.88
2019-02-02T04:07:05.549Z,1.88
2019-02-02T04:08:05.725Z,1.88
2019-02-02T04:09:05.127Z,1.88
2019-02-02T04:10:05.147Z,1.88
2019-02-02T04:11:05.758Z,1.88
2019-02-02T04:12:05.255Z,1.88
2019-02-02T04:13:05.458Z,1.88
2019-02-02T04:14:05.490Z,1.88
2019-02-02T04:15:05.434Z,1.88
2019-02-02T04:16:06.041Z,1.81
2019-02-02T04:17:05.129Z,1.88
2019-02-02T04:18:05.378Z,1.81
2019-02-02T04:19:05.599Z,1.88
2019-02-02T04:20:05.773Z,1.88
2019-02-02T04:21:05.944Z,1.81
2019-02-02T04:22:06.134Z,1.88
2019-02-02T04:23:05.372Z,1.81
2019-02-02T04:24:06.044Z,1.81
2019-02-02T04:25:05.188Z,1.88
2019-02-02T04:26:05.235Z,1.88
2019-02-02T04:27:05.612Z,1.81
2019-02-02T04:28:05.546Z,1.88
2019-02-02T04:29:05.139Z,1.88
2019-02-02T04:30:05.229Z,1.81
2019-02-02T04:31:05.955Z,1.81
2019-02-02T04:32:05.329Z,1.81
2019-02-02T04:33:05.857Z,1.81
2019-02-02T04:34:05.467Z,1.81
2019-02-02T04:35:05.683Z,1.81
2019-02-02T04:36:05.701Z,1.81
2019-02-02T04:37:05.288Z,1.81
2019-02-02T04:38:08.665Z,1.88
2019-02-02T04:39:05.311Z,1.88
2019-02-02T04:40:05.867Z,1.88
2019-02-02T04:41:05.539Z,1.88
2019-02-02T04:42:06.014Z,1.88
2019-02-02T04:43:05.208Z,1.81
2019-02-02T04:44:05.962Z,1.81
2019-02-02T04:45:05.935Z,1.81
2019-02-02T04:46:05.486Z,1.81
2019-02-02T04:47:05.438Z,1.81
2019-02-02T04:48:05.636Z,1.81
2019-02-02T04:49:05.136Z,1.81
2019-02-02T04:50:05.976Z,1.81
2019-02-02T04:51:05.919Z,1.81
2019-02-02T04:52:05.630Z,1.81
2019-02-02T04:53:06.103Z,1.81
2019-02-02T04:54:05.490Z,1.81
2019-02-02T04:55:05.629Z,1.81
2019-02-02T04:56:05.877Z,1.81
2019-02-02T04:57:05.937Z,1.81
2019-02-02T04:58:06.132Z,1.81
2019-02-02T04:59:05.051Z,1.81
2019-02-02T05:00:05.806Z,1.81
2019-02-02T05:01:05.782Z,1.81
2019-02-02T05:02:05.949Z,1.81
2019-02-02T05:03:05.951Z,1.81
2019-02-02T05:04:05.243Z,1.81
2019-02-02T05:05:05.605Z,1.81
2019-02-02T05:06:05.071Z,1.81
2019-02-02T05:07:05.122Z,1.81
2019-02-02T05:08:05.866Z,1.81
2019-02-02T05:09:05.446Z,1.81
2019-02-02T05:10:05.554Z,1.81
2019-02-02T05:11:06.012Z,1.81
2019-02-02T05:12:05.155Z,1.81
2019-02-02T05:13:05.545Z,1.75
2019-02-02T05:14:05.695Z,1.75
2019-02-02T05:15:06.099Z,1.75
2019-02-02T05:16:06.011Z,1.75
2019-02-02T05:17:05.358Z,1.75
2019-02-02T05:18:05.549Z,1.75
2019-02-02T05:19:05.841Z,1.75
2019-02-02T05:20:05.245Z,1.75
2019-02-02T05:21:05.290Z,1.75
2019-02-02T05:22:05.319Z,1.75
2019-02-02T05:23:05.750Z,1.75
2019-02-02T05:24:05.302Z,1.75
2019-02-02T05:25:06.405Z,1.75
2019-02-02T05:26:05.794Z,1.75
2019-02-02T05:27:05.303Z,1.75
2019-02-02T05:28:05.614Z,1.75
2019-02-02T05:29:05.864Z,1.75
2019-02-02T05:30:05.492Z,1.75
2019-02-02T05:31:05.635Z,1.75
2019-02-02T05:32:05.604Z,1.75
2019-02-02T05:33:05.676Z,1.81
2019-02-02T05:34:05.706Z,1.75
2019-02-02T05:35:05.278Z,1.75
2019-02-02T05:36:06.048Z,1.75
2019-02-02T05:37:05.923Z,1.75
2019-02-02T05:38:06.027Z,1.75
2019-02-02T05:39:06.105Z,1.75
2019-02-02T05:40:05.463Z,1.75
2019-02-02T05:41:05.137Z,1.75
2019-02-02T05:42:05.318Z,1.81
2019-02-02T05:43:05.380Z,1.81
2019-02-02T05:44:05.574Z,1.81
2019-02-02T05:45:05.521Z,1.81
2019-02-02T05:46:05.647Z,1.81
2019-02-02T05:47:05.623Z,1.75
2019-02-02T05:48:05.786Z,1.81
2019-02-02T05:49:05.838Z,1.81
2019-02-02T05:50:05.878Z,1.81
2019-02-02T05:51:05.355Z,1.81
2019-02-02T05:52:05.466Z,1.75
2019-02-02T05:53:05.850Z,1.75
2019-02-02T05:54:05.469Z,1.75
2019-02-02T05:55:05.468Z,1.81
2019-02-02T05:56:05.803Z,1.81
2019-02-02T05:57:05.712Z,1.75
2019-02-02T05:58:05.940Z,1.75
2019-02-02T05:59:05.354Z,1.75
2019-02-02T06:00:06.001Z,1.75
2019-02-02T06:01:05.455Z,1.75
2019-02-02T06:02:05.509Z,1.75
2019-02-02T06:03:05.388Z,1.75
2019-02-02T06:04:05.307Z,1.75
2019-02-02T06:05:05.704Z,1.75
2019-02-02T06:06:06.045Z,1.75
2019-02-02T06:07:06.014Z,1.75
2019-02-02T06:08:05.595Z,1.75
2019-02-02T06:09:06.070Z,1.75
2019-02-02T06:10:05.943Z,1.75
2019-02-02T06:11:05.371Z,1.75
2019-02-02T06:12:05.545Z,1.75
2019-02-02T06:13:05.866Z,1.75
2019-02-02T06:14:05.308Z,1.75
2019-02-02T06:15:05.205Z,1.75
2019-02-02T06:16:05.400Z,1.75
2019-02-02T06:17:05.526Z,1.75
2019-02-02T06:18:05.545Z,1.75
2019-02-02T06:19:05.367Z,1.75
2019-02-02T06:20:05.382Z,1.75
2019-02-02T06:21:05.436Z,1.75
2019-02-02T06:22:06.030Z,1.75
2019-02-02T06:23:05.658Z,1.81
2019-02-02T06:24:05.891Z,1.75
2019-02-02T06:25:05.928Z,1.81
2019-02-02T06:26:05.284Z,1.81
2019-02-02T06:27:05.632Z,1.75
2019-02-02T06:28:05.929Z,1.81
2019-02-02T06:29:05.113Z,1.81
2019-02-02T06:30:05.668Z,1.75
2019-02-02T06:31:05.622Z,1.81
2019-02-02T06:32:11.651Z,1.75
2019-02-02T06:33:05.817Z,1.75
2019-02-02T06:34:05.770Z,1.81
2019-02-02T06:35:05.124Z,1.81
2019-02-02T06:36:05.253Z,1.81
2019-02-02T06:37:05.297Z,1.75
2019-02-02T06:38:05.446Z,1.75
2019-02-02T06:39:05.843Z,1.75
2019-02-02T06:40:05.205Z,1.75
2019-02-02T06:41:05.718Z,1.75
2019-02-02T06:42:05.688Z,1.75
2019-02-02T06:43:06.013Z,1.75
2019-02-02T06:44:05.330Z,1.81
2019-02-02T06:45:05.360Z,1.81
2019-02-02T06:46:06.008Z,1.81
2019-02-02T06:47:05.114Z,1.81
2019-02-02T06:48:05.686Z,1.81
2019-02-02T06:49:06.012Z,1.81
2019-02-02T06:50:06.924Z,1.81
2019-02-02T06:51:05.302Z,1.81
2019-02-02T06:52:05.392Z,1.81
2019-02-02T06:53:05.705Z,1.75
2019-02-02T06:54:05.949Z,1.75
2019-02-02T06:55:06.750Z,1.75
2019-02-02T06:56:05.395Z,1.75
2019-02-02T06:57:05.283Z,1.75
2019-02-02T06:58:07.103Z,1.81
2019-02-02T06:59:05.543Z,1.81
2019-02-02T07:00:15.704Z,1.81
2019-02-02T07:01:05.784Z,1.81
2019-02-02T07:02:05.148Z,1.81
2019-02-02T07:03:05.224Z,1.81
2019-02-02T07:04:05.518Z,1.81
2019-02-02T07:05:05.765Z,1.81
2019-02-02T07:06:05.774Z,1.81
2019-02-02T07:07:06.022Z,1.81
2019-02-02T07:08:06.020Z,1.81
2019-02-02T07:09:05.449Z,1.75
2019-02-02T07:10:05.528Z,1.81
2019-02-02T07:11:05.788Z,1.75
2019-02-02T07:12:06.204Z,1.81
2019-02-02T07:13:05.075Z,1.81
2019-02-02T07:14:05.485Z,1.81
2019-02-02T07:15:05.456Z,1.81
2019-02-02T07:16:05.848Z,1.81
2019-02-02T07:17:05.193Z,1.81
2019-02-02T07:18:05.756Z,1.81
2019-02-02T07:19:05.819Z,1.81
2019-02-02T07:20:05.880Z,1.81
2019-02-02T07:21:05.838Z,1.81
2019-02-02T07:22:06.041Z,1.81
2019-02-02T07:23:05.473Z,1.81
2019-02-02T07:24:05.471Z,1.81
2019-02-02T07:25:05.222Z,1.81
2019-02-02T07:26:05.551Z,1.81
2019-02-02T07:27:05.891Z,1.81
2019-02-02T07:28:05.295Z,1.81
2019-02-02T07:29:05.447Z,1.81
2019-02-02T07:30:05.956Z,1.81
2019-02-02T07:31:05.289Z,1.81
2019-02-02T07:32:05.387Z,1.81
2019-02-02T07:33:05.456Z,1.81
2019-02-02T07:34:05.642Z,1.81
2019-02-02T07:35:05.611Z,1.81
2019-02-02T07:36:05.492Z,1.81
2019-02-02T07:37:05.306Z,1.81
2019-02-02T07:38:05.448Z,1.81
2019-02-02T07:39:05.663Z,1.88
2019-02-02T07:40:05.703Z,1.88
2019-02-02T07:41:05.527Z,1.88
2019-02-02T07:42:05.680Z,1.88
2019-02-02T07:43:05.930Z,1.88
2019-02-02T07:44:05.239Z,1.88
2019-02-02T07:45:05.617Z,1.88
2019-02-02T07:46:14.689Z,1.88
2019-02-02T07:47:05.560Z,1.88
2019-02-02T07:48:05.644Z,1.88
2019-02-02T07:49:05.694Z,1.88
2019-02-02T07:50:05.401Z,1.88
2019-02-02T07:51:05.392Z,1.88
2019-02-02T07:52:05.553Z,1.88
2019-02-02T07:53:05.703Z,1.88
2019-02-02T07:54:05.731Z,1.88
2019-02-02T07:55:05.780Z,1.88
2019-02-02T07:56:05.129Z,1.88
2019-02-02T07:57:05.290Z,1.88
2019-02-02T07:58:05.231Z,1.88
2019-02-02T07:59:05.788Z,1.94
2019-02-02T08:00:05.181Z,1.88
2019-02-02T08:01:05.539Z,1.94
2019-02-02T08:02:05.632Z,1.94
2019-02-02T08:03:06.094Z,1.94
2019-02-02T08:04:05.053Z,1.94
2019-02-02T08:05:05.189Z,1.94
2019-02-02T08:06:05.451Z,1.94
2019-02-02T08:07:05.621Z,1.94
2019-02-02T08:08:05.874Z,1.94
2019-02-02T08:09:05.231Z,1.94
2019-02-02T08:10:05.313Z,1.94
2019-02-02T08:11:05.925Z,1.94
2019-02-02T08:12:05.057Z,1.94
2019-02-02T08:13:05.083Z,2.00
2019-02-02T08:14:06.158Z,2.00
2019-02-02T08:15:05.441Z,2.00
2019-02-02T08:16:06.930Z,2.00
2019-02-02T08:17:05.224Z,2.00
2019-02-02T08:18:05.438Z,2.00
2019-02-02T08:19:05.341Z,2.00
2019-02-02T08:20:05.642Z,2.00
2019-02-02T08:21:05.433Z,2.06
2019-02-02T08:22:05.153Z,2.06
2019-02-02T08:23:05.873Z,2.06
2019-02-02T08:24:05.785Z,2.06
2019-02-02T08:25:05.378Z,2.06
2019-02-02T08:26:05.896Z,2.12
2019-02-02T08:27:05.296Z,2.12
2019-02-02T08:28:05.892Z,2.12
2019-02-02T08:29:05.951Z,2.12
2019-02-02T08:30:05.392Z,2.12
2019-02-02T08:31:05.850Z,2.12
2019-02-02T08:32:05.922Z,2.12
2019-02-02T08:33:05.207Z,2.12
2019-02-02T08:34:05.304Z,2.12
2019-02-02T08:35:05.621Z,2.12
2019-02-02T08:36:05.989Z,2.19
2019-02-02T08:37:05.768Z,2.19
2019-02-02T08:38:05.874Z,2.19
2019-02-02T08:39:05.917Z,2.19
2019-02-02T08:40:05.563Z,2.19
2019-02-02T08:41:05.548Z,2.19
2019-02-02T08:42:05.887Z,2.19
2019-02-02T08:43:05.762Z,2.19
2019-02-02T08:44:05.793Z,2.25
2019-02-02T08:45:05.314Z,2.25
2019-02-02T08:46:06.523Z,2.25
2019-02-02T08:47:05.530Z,2.25
2019-02-02T08:48:05.364Z,2.25
2019-02-02T08:49:05.522Z,2.25
2019-02-02T08:50:05.540Z,2.31
2019-02-02T08:51:05.781Z,2.31
2019-02-02T08:52:06.050Z,2.31
2019-02-02T08:53:05.972Z,2.31
2019-02-02T08:54:05.077Z,2.31
2019-02-02T08:55:05.530Z,2.31
2019-02-02T08:56:05.242Z,2.31
2019-02-02T08:57:05.297Z,2.31
2019-02-02T08:58:06.281Z,2.38
2019-02-02T08:59:05.553Z,2.38
2019-02-02T09:00:05.714Z,2.38
2019-02-02T09:01:05.257Z,2.38
2019-02-02T09:02:05.555Z,2.44
2019-02-02T09:03:05.537Z,2.44
2019-02-02T09:04:05.662Z,2.44
2019-02-02T09:05:05.613Z,2.44
2019-02-02T09:06:06.172Z,2.44
2019-02-02T09:07:05.494Z,2.44
2019-02-02T09:08:05.732Z,2.44
2019-02-02T09:09:05.164Z,2.50
2019-02-02T09:10:05.376Z,2.50
2019-02-02T09:11:05.868Z,2.50
2019-02-02T09:12:05.894Z,2.50
2019-02-02T09:13:05.935Z,2.50
2019-02-02T09:14:05.504Z,2.50
2019-02-02T09:15:05.469Z,2.50
2019-02-02T09:16:05.571Z,2.50
2019-02-02T09:17:05.616Z,2.50
2019-02-02T09:18:05.364Z,2.56
2019-02-02T09:19:05.166Z,2.56
2019-02-02T09:20:05.329Z,2.56
2019-02-02T09:21:05.797Z,2.56
2019-02-02T09:22:05.151Z,2.56
2019-02-02T09:23:06.659Z,2.56
2019-02-02T09:24:05.347Z,2.56
2019-02-02T09:25:05.314Z,2.62
2019-02-02T09:26:06.047Z,2.62
2019-02-02T09:27:05.477Z,2.62
2019-02-02T09:28:05.411Z,2.62
2019-02-02T09:29:06.039Z,2.62
2019-02-02T09:30:05.972Z,2.62
2019-02-02T09:31:15.401Z,2.62
2019-02-02T09:32:05.514Z,2.62
2019-02-02T09:33:05.574Z,2.62
2019-02-02T09:34:05.808Z,2.62
2019-02-02T09:35:05.340Z,2.62
2019-02-02T09:36:05.792Z,2.62
2019-02-02T09:37:05.712Z,2.62
2019-02-02T09:38:05.894Z,2.69
2019-02-02T09:39:05.253Z,2.69
2019-02-02T09:40:05.327Z,2.69
2019-02-02T09:41:05.895Z,2.69
2019-02-02T09:42:06.038Z,2.69
2019-02-02T09:43:05.446Z,2.69
2019-02-02T09:44:05.505Z,2.75
2019-02-02T09:45:05.492Z,2.75
2019-02-02T09:46:05.587Z,2.75
2019-02-02T09:47:05.952Z,2.75
2019-02-02T09:48:05.415Z,2.75
2019-02-02T09:49:06.135Z,2.75
2019-02-02T09:50:05.162Z,2.75
2019-02-02T09:51:05.324Z,2.75
2019-02-02T09:52:05.705Z,2.75
2019-02-02T09:53:05.643Z,2.81
2019-02-02T09:54:05.178Z,2.81
2019-02-02T09:55:05.650Z,2.81
2019-02-02T09:56:05.736Z,2.81
2019-02-02T09:57:05.227Z,2.81
2019-02-02T09:58:08.541Z,2.81
2019-02-02T09:59:05.387Z,2.88
2019-02-02T10:00:05.346Z,2.81
2019-02-02T10:01:06.776Z,2.81
2019-02-02T10:02:05.256Z,2.88
2019-02-02T10:03:05.388Z,2.88
2019-02-02T10:04:05.899Z,2.88
2019-02-02T10:05:05.511Z,2.88
2019-02-02T10:06:05.657Z,2.88
2019-02-02T10:07:05.171Z,2.88
2019-02-02T10:08:05.416Z,2.88
2019-02-02T10:09:05.800Z,2.94
2019-02-02T10:10:05.328Z,2.94
2019-02-02T10:11:05.726Z,2.94
2019-02-02T10:12:06.057Z,2.94
2019-02-02T10:13:05.244Z,2.94
2019-02-02T10:14:05.074Z,2.94
2019-02-02T10:15:05.212Z,2.94
2019-02-02T10:16:05.385Z,2.94
2019-02-02T10:17:05.551Z,2.94
2019-02-02T10:18:05.628Z,3.00
2019-02-02T10:19:05.539Z,3.00
2019-02-02T10:20:05.627Z,3.00
2019-02-02T10:21:05.212Z,3.00
2019-02-02T10:22:05.309Z,3.00
2019-02-02T10:23:05.832Z,3.06
2019-02-02T10:24:06.198Z,3.06
2019-02-02T10:25:05.509Z,3.06
2019-02-02T10:26:05.621Z,3.06
2019-02-02T10:27:06.002Z,3.06
2019-02-02T10:28:05.546Z,3.06
2019-02-02T10:29:05.307Z,3.12
2019-02-02T10:30:05.386Z,3.12
2019-02-02T10:31:05.607Z,3.12
2019-02-02T10:32:05.110Z,3.12
2019-02-02T10:33:05.531Z,3.12
2019-02-02T10:34:05.533Z,3.12
2019-02-02T10:35:05.537Z,3.12
2019-02-02T10:36:05.792Z,3.12
2019-02-02T10:37:05.307Z,3.19
2019-02-02T10:38:05.383Z,3.19
2019-02-02T10:39:05.197Z,3.19
2019-02-02T10:40:05.211Z,3.19
2019-02-02T10:41:05.848Z,3.19
2019-02-02T10:42:05.390Z,3.19
2019-02-02T10:43:05.400Z,3.19
2019-02-02T10:44:05.543Z,3.19
2019-02-02T10:45:05.767Z,3.19
2019-02-02T10:46:05.967Z,3.25
2019-02-02T10:47:05.449Z,3.25
2019-02-02T10:48:05.958Z,3.25
2019-02-02T10:49:05.830Z,3.25
2019-02-02T10:50:05.622Z,3.25
2019-02-02T10:51:05.294Z,3.25
2019-02-02T10:52:05.718Z,3.25
2019-02-02T10:53:05.792Z,3.25
2019-02-02T10:54:05.985Z,3.25
2019-02-02T10:55:05.308Z,3.25
2019-02-02T10:56:05.554Z,3.25
2019-02-02T10:57:05.678Z,3.25
2019-02-02T10:58:05.720Z,3.25
2019-02-02T10:59:05.853Z,3.25
2019-02-02T11:00:05.951Z,3.25
2019-02-02T11:01:05.455Z,3.25
2019-02-02T11:02:05.466Z,3.25
2019-02-02T11:03:05.680Z,3.25
2019-02-02T11:04:05.703Z,3.25
2019-02-02T11:05:05.129Z,3.25
2019-02-02T11:06:05.624Z,3.25
2019-02-02T11:07:05.971Z,3.25
2019-02-02T11:08:05.555Z,3.25
2019-02-02T11:09:05.847Z,3.25
2019-02-02T11:10:06.060Z,3.31
2019-02-02T11:11:05.172Z,3.31
2019-02-02T11:12:05.404Z,3.31
2019-02-02T11:13:06.077Z,3.31
2019-02-02T11:14:05.475Z,3.31
2019-02-02T11:15:06.085Z,3.31
2019-02-02T11:16:08.149Z,3.31
2019-02-02T11:17:05.078Z,3.38
2019-02-02T11:18:05.962Z,3.38
2019-02-02T11:19:07.136Z,3.38
2019-02-02T11:20:05.368Z,3.38
2019-02-02T11:21:05.869Z,3.38
2019-02-02T11:22:05.079Z,3.38
2019-02-02T11:23:05.973Z,3.38
2019-02-02T11:24:05.533Z,3.38
2019-02-02T11:25:07.439Z,3.38
2019-02-02T11:26:05.530Z,3.38
2019-02-02T11:27:05.789Z,3.38
2019-02-02T11:28:05.271Z,3.38
2019-02-02T11:29:05.784Z,3.38
2019-02-02T11:30:06.035Z,3.44
2019-02-02T11:31:05.766Z,3.38
2019-02-02T11:32:05.950Z,3.38
2019-02-02T11:33:06.195Z,3.44
2019-02-02T11:34:05.538Z,3.44
2019-02-02T11:35:05.132Z,3.44
2019-02-02T11:36:05.709Z,3.44
2019-02-02T11:37:05.346Z,3.44
2019-02-02T11:38:05.304Z,3.44
2019-02-02T11:39:05.327Z,3.44
2019-02-02T11:40:05.368Z,3.44
2019-02-02T11:41:05.522Z,3.44
2019-02-02T11:42:06.914Z,3.50
2019-02-02T11:43:05.145Z,3.44
2019-02-02T11:44:05.366Z,3.50
2019-02-02T11:45:05.515Z,3.50
2019-02-02T11:46:05.620Z,3.50
2019-02-02T11:47:05.412Z,3.50
2019-02-02T11:48:05.379Z,3.44
2019-02-02T11:49:05.368Z,3.50
2019-02-02T11:50:05.929Z,3.50
2019-02-02T11:51:05.368Z,3.50
2019-02-02T11:52:05.388Z,3.50
2019-02-02T11:53:05.704Z,3.50
2019-02-02T11:54:05.879Z,3.50
2019-02-02T11:55:05.218Z,3.50
2019-02-02T11:56:05.720Z,3.50
2019-02-02T11:57:05.850Z,3.50
2019-02-02T11:58:05.855Z,3.56
2019-02-02T11:59:05.949Z,3.56
2019-02-02T12:00:05.148Z,3.56
2019-02-02T12:01:05.518Z,3.56
2019-02-02T12:02:14.190Z,3.56
2019-02-02T12:03:05.272Z,3.56
2019-02-02T12:04:05.482Z,3.56
2019-02-02T12:05:05.469Z,3.56
2019-02-02T12:06:05.688Z,3.56
2019-02-02T12:07:05.868Z,3.50
2019-02-02T12:08:06.048Z,3.50
2019-02-02T12:09:05.377Z,3.56
2019-02-02T12:10:05.467Z,3.56
2019-02-02T12:11:05.727Z,3.56
2019-02-02T12:12:05.972Z,3.56
2019-02-02T12:13:05.539Z,3.50
2019-02-02T12:14:05.563Z,3.50
2019-02-02T12:15:06.001Z,3.50
2019-02-02T12:16:05.733Z,3.50
2019-02-02T12:17:05.633Z,3.50
2019-02-02T12:18:06.365Z,3.50
2019-02-02T12:19:05.560Z,3.50
2019-02-02T12:20:05.444Z,3.50
2019-02-02T12:21:05.693Z,3.56
2019-02-02T12:22:05.734Z,3.56
2019-02-02T12:23:05.761Z,3.56
2019-02-02T12:24:13.257Z,3.56
2019-02-02T12:25:05.538Z,3.56
2019-02-02T12:26:05.240Z,3.56
2019-02-02T12:27:05.374Z,3.56
2019-02-02T12:28:05.371Z,3.56
2019-02-02T12:29:05.547Z,3.56
2019-02-02T12:30:05.318Z,3.56
2019-02-02T12:31:05.369Z,3.56
2019-02-02T12:32:05.304Z,3.56
2019-02-02T12:33:06.098Z,3.56
2019-02-02T12:34:05.076Z,3.56
2019-02-02T12:35:05.530Z,3.56
2019-02-02T12:36:05.702Z,3.56
2019-02-02T12:37:06.036Z,3.56
2019-02-02T12:38:05.861Z,3.56
2019-02-02T12:39:05.520Z,3.56
2019-02-02T12:40:05.998Z,3.56
2019-02-02T12:41:05.135Z,3.56
2019-02-02T12:42:05.798Z,3.56
2019-02-02T12:43:05.937Z,3.56
2019-02-02T12:44:05.955Z,3.62
2019-02-02T12:45:05.915Z,3.56
2019-02-02T12:46:05.401Z,3.62
2019-02-02T12:47:05.934Z,3.62
2019-02-02T12:48:05.389Z,3.62
2019-02-02T12:49:05.369Z,3.62
2019-02-02T12:50:05.928Z,3.62
2019-02-02T12:51:05.308Z,3.62
2019-02-02T12:52:05.523Z,3.62
2019-02-02T12:53:05.955Z,3.62
2019-02-02T12:54:05.850Z,3.62
2019-02-02T12:55:05.173Z,3.62
2019-02-02T12:56:05.244Z,3.62
2019-02-02T12:57:05.400Z,3.69
2019-02-02T12:58:05.222Z,3.69
2019-02-02T12:59:05.845Z,3.69
2019-02-02T13:00:05.945Z,3.69
2019-02-02T13:01:05.375Z,3.69
2019-02-02T13:02:05.947Z,3.69
2019-02-02T13:03:05.547Z,3.69
2019-02-02T13:04:05.719Z,3.69
2019-02-02T13:05:05.302Z,3.69
2019-02-02T13:06:05.488Z,3.69
2019-02-02T13:07:05.207Z,3.75
2019-02-02T13:08:05.777Z,3.75
2019-02-02T13:09:05.140Z,3.69
2019-02-02T13:10:05.401Z,3.69
2019-02-02T13:11:05.823Z,3.69
2019-02-02T13:12:05.941Z,3.69
2019-02-02T13:13:05.787Z,3.69
2019-02-02T13:14:05.869Z,3.69
2019-02-02T13:15:05.439Z,3.69
2019-02-02T13:16:05.402Z,3.69
2019-02-02T13:17:05.144Z,3.69
2019-02-02T13:18:05.229Z,3.69